sensor_id;sensor_type;location;lat;lon;timestamp;pressure;altitude;pressure_sealevel;temperature;humidity
62402;BME280;48440;51.224;22.506;2023-04-08T00:02:05;99673.34;;;4.07;73.53
62402;BME280;48440;51.224;22.506;2023-04-08T00:04:31;99670.66;;;4.07;73.30
62402;BME280;48440;51.224;22.506;2023-04-08T00:06:56;99665.47;;;4.06;73.71
62402;BME280;48440;51.224;22.506;2023-04-08T00:09:21;99674.78;;;4.03;74.01
62402;BME280;48440;51.224;22.506;2023-04-08T00:11:47;99672.50;;;4.00;73.94
62402;BME280;48440;51.224;22.506;2023-04-08T00:14:13;99682.00;;;4.03;73.86
62402;BME280;48440;51.224;22.506;2023-04-08T00:16:38;99677.88;;;4.00;74.07
62402;BME280;48440;51.224;22.506;2023-04-08T00:19:03;99682.41;;;4.00;74.22
62402;BME280;48440;51.224;22.506;2023-04-08T00:21:30;99683.00;;;3.95;74.33
62402;BME280;48440;51.224;22.506;2023-04-08T00:23:58;99683.22;;;3.94;74.35
62402;BME280;48440;51.224;22.506;2023-04-08T00:26:24;99686.91;;;3.93;74.37
62402;BME280;48440;51.224;22.506;2023-04-08T00:28:50;99684.88;;;3.95;74.98
62402;BME280;48440;51.224;22.506;2023-04-08T00:31:16;99681.97;;;3.90;74.80
62402;BME280;48440;51.224;22.506;2023-04-08T00:33:41;99699.94;;;3.89;75.21
62402;BME280;48440;51.224;22.506;2023-04-08T00:36:07;99696.44;;;3.89;74.80
62402;BME280;48440;51.224;22.506;2023-04-08T00:38:32;99685.69;;;3.89;75.08
62402;BME280;48440;51.224;22.506;2023-04-08T00:40:58;99694.97;;;3.86;74.90
62402;BME280;48440;51.224;22.506;2023-04-08T00:43:23;99686.09;;;3.86;75.53
62402;BME280;48440;51.224;22.506;2023-04-08T00:45:48;99686.94;;;3.86;75.62
62402;BME280;48440;51.224;22.506;2023-04-08T00:48:14;99679.47;;;3.82;75.59
62402;BME280;48440;51.224;22.506;2023-04-08T00:50:42;99685.47;;;3.84;75.50
62402;BME280;48440;51.224;22.506;2023-04-08T00:53:07;99687.72;;;3.80;75.55
62402;BME280;48440;51.224;22.506;2023-04-08T00:55:33;99693.69;;;3.75;75.74
62402;BME280;48440;51.224;22.506;2023-04-08T00:57:58;99699.88;;;3.76;75.98
62402;BME280;48440;51.224;22.506;2023-04-08T01:00:24;99691.63;;;3.78;75.95
62402;BME280;48440;51.224;22.506;2023-04-08T01:03:07;99693.88;;;3.74;76.11
62402;BME280;48440;51.224;22.506;2023-04-08T01:08:16;99695.50;;;3.68;76.30
62402;BME280;48440;51.224;22.506;2023-04-08T01:10:43;99705.44;;;3.68;76.21
62402;BME280;48440;51.224;22.506;2023-04-08T01:13:16;99701.47;;;3.64;76.86
62402;BME280;48440;51.224;22.506;2023-04-08T01:15:43;99702.31;;;3.64;76.79
62402;BME280;48440;51.224;22.506;2023-04-08T01:18:11;99704.78;;;3.66;76.68
62402;BME280;48440;51.224;22.506;2023-04-08T01:20:38;99705.00;;;3.64;76.99
62402;BME280;48440;51.224;22.506;2023-04-08T01:23:38;99705.00;;;3.64;76.73
62402;BME280;48440;51.224;22.506;2023-04-08T01:26:05;99705.22;;;3.63;76.84
62402;BME280;48440;51.224;22.506;2023-04-08T01:28:32;99712.84;;;3.59;76.97
62402;BME280;48440;51.224;22.506;2023-04-08T01:30:59;99711.38;;;3.57;77.19
62402;BME280;48440;51.224;22.506;2023-04-08T01:33:27;99720.66;;;3.54;77.01
62402;BME280;48440;51.224;22.506;2023-04-08T01:35:54;99710.75;;;3.55;77.21
62402;BME280;48440;51.224;22.506;2023-04-08T01:38:22;99716.94;;;3.55;77.66
62402;BME280;48440;51.224;22.506;2023-04-08T01:40:50;99717.78;;;3.56;77.71
62402;BME280;48440;51.224;22.506;2023-04-08T01:43:17;99716.94;;;3.55;77.50
62402;BME280;48440;51.224;22.506;2023-04-08T01:45:45;99715.09;;;3.56;77.73
62402;BME280;48440;51.224;22.506;2023-04-08T01:48:13;99710.56;;;3.56;77.46
62402;BME280;48440;51.224;22.506;2023-04-08T01:50:41;99716.13;;;3.55;77.19
62402;BME280;48440;51.224;22.506;2023-04-08T01:53:09;99713.44;;;3.55;77.46
62402;BME280;48440;51.224;22.506;2023-04-08T01:55:36;99707.88;;;3.56;77.44
62402;BME280;48440;51.224;22.506;2023-04-08T01:58:04;99708.69;;;3.57;77.25
62402;BME280;48440;51.224;22.506;2023-04-08T02:00:33;99718.59;;;3.56;77.44
62402;BME280;48440;51.224;22.506;2023-04-08T02:03:01;99709.53;;;3.57;77.33
62402;BME280;48440;51.224;22.506;2023-04-08T02:05:27;99709.72;;;3.56;77.23
62402;BME280;48440;51.224;22.506;2023-04-08T02:07:52;99713.25;;;3.56;77.42
62402;BME280;48440;51.224;22.506;2023-04-08T02:10:18;99722.72;;;3.52;77.20
62402;BME280;48440;51.224;22.506;2023-04-08T02:12:44;99719.00;;;3.53;77.40
62402;BME280;48440;51.224;22.506;2023-04-08T02:15:11;99720.66;;;3.54;77.19
62402;BME280;48440;51.224;22.506;2023-04-08T02:17:55;99721.00;;;3.45;77.27
62402;BME280;48440;51.224;22.506;2023-04-08T02:20:30;99723.88;;;3.43;77.44
62402;BME280;48440;51.224;22.506;2023-04-08T02:23:04;99720.78;;;3.39;77.41
62402;BME280;48440;51.224;22.506;2023-04-08T02:25:34;99718.28;;;3.38;77.56
62402;BME280;48440;51.224;22.506;2023-04-08T02:28:02;99722.84;;;3.37;77.65
62402;BME280;48440;51.224;22.506;2023-04-08T02:30:30;99720.78;;;3.39;77.38
62402;BME280;48440;51.224;22.506;2023-04-08T02:32:57;99724.69;;;3.37;77.32
62402;BME280;48440;51.224;22.506;2023-04-08T02:35:23;99718.06;;;3.33;77.23
62402;BME280;48440;51.224;22.506;2023-04-08T02:37:48;99727.78;;;3.34;77.37
62402;BME280;48440;51.224;22.506;2023-04-08T02:40:30;99718.28;;;3.38;77.51
62402;BME280;48440;51.224;22.506;2023-04-08T02:42:57;99721.41;;;3.41;77.34
62402;BME280;48440;51.224;22.506;2023-04-08T02:45:26;99721.22;;;3.43;77.04
62402;BME280;48440;51.224;22.506;2023-04-08T02:47:52;99714.19;;;3.42;77.13
62402;BME280;48440;51.224;22.506;2023-04-08T02:50:17;99712.13;;;3.37;77.14
62402;BME280;48440;51.224;22.506;2023-04-08T02:52:43;99717.50;;;3.37;77.05
62402;BME280;48440;51.224;22.506;2023-04-08T02:55:09;99711.88;;;3.32;77.09
62402;BME280;48440;51.224;22.506;2023-04-08T02:57:38;99710.03;;;3.33;77.27
62402;BME280;48440;51.224;22.506;2023-04-08T03:00:08;99716.41;;;3.32;77.54
62402;BME280;48440;51.224;22.506;2023-04-08T03:02:33;99718.66;;;3.28;77.23
62402;BME280;48440;51.224;22.506;2023-04-08T03:05:02;99719.06;;;3.25;77.16
62402;BME280;48440;51.224;22.506;2023-04-08T03:07:29;99722.94;;;3.23;77.34
62402;BME280;48440;51.224;22.506;2023-04-08T03:09:55;99717.97;;;3.20;77.54
62402;BME280;48440;51.224;22.506;2023-04-08T03:12:21;99716.97;;;3.21;77.52
62402;BME280;48440;51.224;22.506;2023-04-08T03:14:47;99716.72;;;3.16;77.60
62402;BME280;48440;51.224;22.506;2023-04-08T03:17:13;99714.84;;;3.16;77.39
62402;BME280;48440;51.224;22.506;2023-04-08T03:19:40;99717.75;;;3.15;77.13
62402;BME280;48440;51.224;22.506;2023-04-08T03:22:06;99717.09;;;3.13;77.38
62402;BME280;48440;51.224;22.506;2023-04-08T03:24:31;99724.31;;;3.12;77.57
62402;BME280;48440;51.224;22.506;2023-04-08T03:26:56;99717.94;;;3.13;77.52
62402;BME280;48440;51.224;22.506;2023-04-08T03:29:22;99713.41;;;3.14;77.70
62402;BME280;48440;51.224;22.506;2023-04-08T03:31:49;99715.06;;;3.15;77.20
62402;BME280;48440;51.224;22.506;2023-04-08T03:34:15;99725.16;;;3.13;77.54
62402;BME280;48440;51.224;22.506;2023-04-08T03:36:40;99722.28;;;3.14;77.34
62402;BME280;48440;51.224;22.506;2023-04-08T03:39:06;99719.56;;;3.08;77.43
62402;BME280;48440;51.224;22.506;2023-04-08T03:41:31;99722.06;;;3.09;77.75
62402;BME280;48440;51.224;22.506;2023-04-08T03:43:57;99729.91;;;3.11;77.40
62402;BME280;48440;51.224;22.506;2023-04-08T03:46:22;99741.66;;;3.10;77.40
62402;BME280;48440;51.224;22.506;2023-04-08T03:48:47;99749.06;;;3.08;77.44
62402;BME280;48440;51.224;22.506;2023-04-08T03:51:13;99749.06;;;3.08;77.20
62402;BME280;48440;51.224;22.506;2023-04-08T03:53:38;99747.59;;;3.05;77.62
62402;BME280;48440;51.224;22.506;2023-04-08T03:56:04;99756.91;;;3.09;77.37
62402;BME280;48440;51.224;22.506;2023-04-08T03:58:30;99751.31;;;3.04;77.39
62402;BME280;48440;51.224;22.506;2023-04-08T04:00:56;99755.84;;;3.03;77.42
62402;BME280;48440;51.224;22.506;2023-04-08T04:03:21;99756.28;;;3.07;77.34
62402;BME280;48440;51.224;22.506;2023-04-08T04:05:47;99762.28;;;3.09;77.41
62402;BME280;48440;51.224;22.506;2023-04-08T04:08:13;99757.94;;;3.08;77.20
62402;BME280;48440;51.224;22.506;2023-04-08T04:10:38;99758.56;;;3.10;77.35
62402;BME280;48440;51.224;22.506;2023-04-08T04:13:04;99762.47;;;3.08;76.93
62402;BME280;48440;51.224;22.506;2023-04-08T04:15:30;99766.81;;;3.09;77.13
62402;BME280;48440;51.224;22.506;2023-04-08T04:17:55;99772.00;;;3.10;77.38
62402;BME280;48440;51.224;22.506;2023-04-08T04:20:21;99769.69;;;3.07;77.72
62402;BME280;48440;51.224;22.506;2023-04-08T04:22:46;99772.81;;;3.11;77.71
62402;BME280;48440;51.224;22.506;2023-04-08T04:25:12;99770.31;;;3.09;77.47
62402;BME280;48440;51.224;22.506;2023-04-08T04:27:37;99786.41;;;3.09;77.70
62402;BME280;48440;51.224;22.506;2023-04-08T04:30:03;99782.53;;;3.12;77.67
62402;BME280;48440;51.224;22.506;2023-04-08T04:32:29;99792.19;;;3.13;77.42
62402;BME280;48440;51.224;22.506;2023-04-08T04:34:54;99789.31;;;3.14;77.58
62402;BME280;48440;51.224;22.506;2023-04-08T04:37:20;99793.03;;;3.13;77.56
62402;BME280;48440;51.224;22.506;2023-04-08T04:39:45;99789.75;;;3.18;77.20
62402;BME280;48440;51.224;22.506;2023-04-08T04:42:11;99800.94;;;3.21;77.36
62402;BME280;48440;51.224;22.506;2023-04-08T04:44:36;99793.28;;;3.18;77.66
62402;BME280;48440;51.224;22.506;2023-04-08T04:47:02;99799.72;;;3.24;77.33
62402;BME280;48440;51.224;22.506;2023-04-08T04:49:27;99810.88;;;3.27;77.39
62402;BME280;48440;51.224;22.506;2023-04-08T04:51:53;99808.84;;;3.29;77.96
62402;BME280;48440;51.224;22.506;2023-04-08T04:54:18;99807.25;;;3.35;77.98
62402;BME280;48440;51.224;22.506;2023-04-08T04:56:44;99808.47;;;3.39;77.50
62402;BME280;48440;51.224;22.506;2023-04-08T04:59:09;99806.03;;;3.44;77.90
62402;BME280;48440;51.224;22.506;2023-04-08T05:01:35;99810.63;;;3.50;77.65
62402;BME280;48440;51.224;22.506;2023-04-08T05:04:00;99812.09;;;3.53;77.61
62402;BME280;48440;51.224;22.506;2023-04-08T05:06:26;99821.22;;;3.58;77.60
62402;BME280;48440;51.224;22.506;2023-04-08T05:08:52;99814.44;;;3.62;77.55
62402;BME280;48440;51.224;22.506;2023-04-08T05:11:18;99819.63;;;3.70;77.31
62402;BME280;48440;51.224;22.506;2023-04-08T05:13:44;99820.25;;;3.72;77.19
62402;BME280;48440;51.224;22.506;2023-04-08T05:16:12;99825.03;;;3.77;77.41
62402;BME280;48440;51.224;22.506;2023-04-08T05:18:41;99832.34;;;3.90;77.04
62402;BME280;48440;51.224;22.506;2023-04-08T05:21:06;99837.94;;;3.95;77.12
62402;BME280;48440;51.224;22.506;2023-04-08T05:23:31;99837.53;;;3.98;76.93
62402;BME280;48440;51.224;22.506;2023-04-08T05:25:58;99827.22;;;4.01;77.15
62402;BME280;48440;51.224;22.506;2023-04-08T05:28:23;99845.44;;;4.06;76.93
62402;BME280;48440;51.224;22.506;2023-04-08T05:30:50;99846.50;;;4.12;76.72
62402;BME280;48440;51.224;22.506;2023-04-08T05:33:16;99850.84;;;4.19;76.25
62402;BME280;48440;51.224;22.506;2023-04-08T05:35:42;99856.66;;;4.23;75.74
62402;BME280;48440;51.224;22.506;2023-04-08T05:38:07;99855.91;;;4.35;75.44
62402;BME280;48440;51.224;22.506;2023-04-08T05:40:32;99855.69;;;4.43;75.75
62402;BME280;48440;51.224;22.506;2023-04-08T05:42:58;99861.75;;;4.59;75.08
62402;BME280;48440;51.224;22.506;2023-04-08T05:45:23;99848.56;;;4.64;75.13
62402;BME280;48440;51.224;22.506;2023-04-08T05:47:49;99855.56;;;4.71;74.72
62402;BME280;48440;51.224;22.506;2023-04-08T05:50:15;99850.66;;;4.88;74.46
62402;BME280;48440;51.224;22.506;2023-04-08T05:52:44;99855.84;;;5.09;73.96
62402;BME280;48440;51.224;22.506;2023-04-08T05:55:10;99860.59;;;5.21;73.46
62402;BME280;48440;51.224;22.506;2023-04-08T05:57:36;99861.03;;;5.37;73.16
62402;BME280;48440;51.224;22.506;2023-04-08T06:00:03;99862.28;;;5.41;72.59
62402;BME280;48440;51.224;22.506;2023-04-08T06:02:29;99858.13;;;5.59;72.45
62402;BME280;48440;51.224;22.506;2023-04-08T06:04:55;99857.66;;;5.82;71.78
62402;BME280;48440;51.224;22.506;2023-04-08T06:07:20;99856.19;;;5.99;71.04
62402;BME280;48440;51.224;22.506;2023-04-08T06:09:48;99865.03;;;6.26;70.72
62402;BME280;48440;51.224;22.506;2023-04-08T06:12:14;99859.03;;;6.68;69.84
62402;BME280;48440;51.224;22.506;2023-04-08T06:14:39;99861.66;;;7.13;68.25
62402;BME280;48440;51.224;22.506;2023-04-08T06:17:05;99856.09;;;7.58;67.29
62402;BME280;48440;51.224;22.506;2023-04-08T06:19:30;99851.88;;;8.05;65.83
62402;BME280;48440;51.224;22.506;2023-04-08T06:21:56;99856.03;;;8.44;65.19
62402;BME280;48440;51.224;22.506;2023-04-08T06:24:27;99855.53;;;8.65;63.31
62402;BME280;48440;51.224;22.506;2023-04-08T06:26:54;99862.22;;;8.93;62.85
62402;BME280;48440;51.224;22.506;2023-04-08T06:29:20;99858.97;;;9.14;62.58
62402;BME280;48440;51.224;22.506;2023-04-08T06:31:46;99857.28;;;9.31;61.69
62402;BME280;48440;51.224;22.506;2023-04-08T06:34:12;99849.25;;;9.36;60.70
62402;BME280;48440;51.224;22.506;2023-04-08T06:36:37;99860.38;;;9.58;60.22
62402;BME280;48440;51.224;22.506;2023-04-08T06:39:03;99866.13;;;9.73;60.42
62402;BME280;48440;51.224;22.506;2023-04-08T06:41:29;99860.94;;;9.72;59.88
62402;BME280;48440;51.224;22.506;2023-04-08T06:43:55;99867.44;;;9.82;59.78
62402;BME280;48440;51.224;22.506;2023-04-08T06:46:20;99855.16;;;9.92;59.34
62402;BME280;48440;51.224;22.506;2023-04-08T06:48:46;99853.50;;;10.02;59.23
62402;BME280;48440;51.224;22.506;2023-04-08T06:51:11;99856.22;;;10.26;59.24
62402;BME280;48440;51.224;22.506;2023-04-08T06:53:37;99855.06;;;10.62;58.89
62402;BME280;48440;51.224;22.506;2023-04-08T06:56:02;99860.63;;;10.83;57.68
62402;BME280;48440;51.224;22.506;2023-04-08T06:58:28;99864.16;;;11.12;56.83
62402;BME280;48440;51.224;22.506;2023-04-08T07:00:54;99859.31;;;11.31;55.82
62402;BME280;48440;51.224;22.506;2023-04-08T07:03:22;99859.78;;;11.45;56.47
62402;BME280;48440;51.224;22.506;2023-04-08T07:05:48;99865.56;;;11.48;55.57
62402;BME280;48440;51.224;22.506;2023-04-08T07:08:13;99863.44;;;11.67;55.15
62402;BME280;48440;51.224;22.506;2023-04-08T07:10:39;99863.28;;;11.91;54.27
62402;BME280;48440;51.224;22.506;2023-04-08T07:13:06;99864.88;;;12.08;53.85
62402;BME280;48440;51.224;22.506;2023-04-08T07:15:32;99862.81;;;12.15;53.99
62402;BME280;48440;51.224;22.506;2023-04-08T07:18:00;99867.13;;;12.33;53.35
62402;BME280;48440;51.224;22.506;2023-04-08T07:20:26;99869.91;;;12.38;52.66
62402;BME280;48440;51.224;22.506;2023-04-08T07:22:51;99869.78;;;12.50;51.92
62402;BME280;48440;51.224;22.506;2023-04-08T07:25:17;99878.97;;;12.44;51.39
62402;BME280;48440;51.224;22.506;2023-04-08T07:27:42;99865.13;;;12.45;51.17
62402;BME280;48440;51.224;22.506;2023-04-08T07:30:08;99867.25;;;12.65;50.87
62402;BME280;48440;51.224;22.506;2023-04-08T07:32:34;99863.09;;;12.84;51.32
62402;BME280;48440;51.224;22.506;2023-04-08T07:35:00;99869.44;;;12.90;49.87
62402;BME280;48440;51.224;22.506;2023-04-08T07:37:26;99869.00;;;13.03;50.33
62402;BME280;48440;51.224;22.506;2023-04-08T07:39:52;99865.47;;;13.03;50.00
62402;BME280;48440;51.224;22.506;2023-04-08T07:42:18;99876.28;;;12.93;50.27
62402;BME280;48440;51.224;22.506;2023-04-08T07:44:44;99876.09;;;12.99;50.51
62402;BME280;48440;51.224;22.506;2023-04-08T07:47:10;99862.28;;;13.11;50.92
62402;BME280;48440;51.224;22.506;2023-04-08T07:49:36;99871.00;;;13.35;50.47
62402;BME280;48440;51.224;22.506;2023-04-08T07:52:03;99872.94;;;13.39;49.59
62402;BME280;48440;51.224;22.506;2023-04-08T07:54:30;99871.75;;;13.30;49.74
62402;BME280;48440;51.224;22.506;2023-04-08T07:56:56;99874.41;;;13.52;49.64
62402;BME280;48440;51.224;22.506;2023-04-08T07:59:21;99875.53;;;13.56;49.59
62402;BME280;48440;51.224;22.506;2023-04-08T08:01:47;99874.28;;;13.69;49.39
62402;BME280;48440;51.224;22.506;2023-04-08T08:04:12;99857.56;;;13.60;49.61
62402;BME280;48440;51.224;22.506;2023-04-08T08:06:38;99860.34;;;13.65;49.81
62402;BME280;48440;51.224;22.506;2023-04-08T08:09:03;99862.19;;;13.97;49.48
62402;BME280;48440;51.224;22.506;2023-04-08T08:11:29;99856.56;;;14.13;48.91
62402;BME280;48440;51.224;22.506;2023-04-08T08:13:55;99865.47;;;14.41;49.11
62402;BME280;48440;51.224;22.506;2023-04-08T08:16:21;99858.69;;;14.48;47.82
62402;BME280;48440;51.224;22.506;2023-04-08T08:18:46;99867.97;;;14.47;48.26
62402;BME280;48440;51.224;22.506;2023-04-08T08:21:12;99854.31;;;14.57;46.94
62402;BME280;48440;51.224;22.506;2023-04-08T08:23:37;99863.84;;;14.45;47.81
62402;BME280;48440;51.224;22.506;2023-04-08T08:26:05;99850.34;;;14.80;47.86
62402;BME280;48440;51.224;22.506;2023-04-08T08:28:31;99855.00;;;14.95;48.36
62402;BME280;48440;51.224;22.506;2023-04-08T08:30:57;99858.84;;;15.14;47.73
62402;BME280;48440;51.224;22.506;2023-04-08T08:33:23;99858.63;;;15.31;47.60
62402;BME280;48440;51.224;22.506;2023-04-08T08:35:49;99855.84;;;15.11;46.30
62402;BME280;48440;51.224;22.506;2023-04-08T08:38:15;99861.56;;;15.09;47.07
62402;BME280;48440;51.224;22.506;2023-04-08T08:40:42;99858.06;;;15.29;46.54
62402;BME280;48440;51.224;22.506;2023-04-08T08:43:08;99857.50;;;15.27;46.11
62402;BME280;48440;51.224;22.506;2023-04-08T08:45:38;99865.41;;;15.03;46.13
62402;BME280;48440;51.224;22.506;2023-04-08T08:48:05;99863.47;;;14.99;46.60
62402;BME280;48440;51.224;22.506;2023-04-08T08:50:31;99862.47;;;14.42;47.11
62402;BME280;48440;51.224;22.506;2023-04-08T08:52:57;99872.56;;;13.95;47.84
62402;BME280;48440;51.224;22.506;2023-04-08T08:55:22;99866.72;;;13.81;49.23
62402;BME280;48440;51.224;22.506;2023-04-08T08:57:51;99872.59;;;14.00;49.41
62402;BME280;48440;51.224;22.506;2023-04-08T09:00:16;99873.84;;;14.29;48.85
62402;BME280;48440;51.224;22.506;2023-04-08T09:02:42;99873.19;;;14.12;48.19
62402;BME280;48440;51.224;22.506;2023-04-08T09:05:08;99874.13;;;14.27;48.54
62402;BME280;48440;51.224;22.506;2023-04-08T09:07:37;99869.75;;;14.32;47.71
62402;BME280;48440;51.224;22.506;2023-04-08T09:10:06;99858.47;;;14.65;47.13
62402;BME280;48440;51.224;22.506;2023-04-08T09:12:32;99856.56;;;14.66;47.54
62402;BME280;48440;51.224;22.506;2023-04-08T09:15:06;99866.16;;;14.73;47.46
62402;BME280;48440;51.224;22.506;2023-04-08T09:17:34;99862.41;;;15.05;47.17
62402;BME280;48440;51.224;22.506;2023-04-08T09:20:10;99869.25;;;15.22;46.80
62402;BME280;48440;51.224;22.506;2023-04-08T09:22:55;99865.66;;;14.97;46.02
62402;BME280;48440;51.224;22.506;2023-04-08T09:25:25;99874.13;;;14.95;45.81
62402;BME280;48440;51.224;22.506;2023-04-08T09:27:51;99876.00;;;14.22;47.48
62402;BME280;48440;51.224;22.506;2023-04-08T09:30:17;99887.41;;;13.72;48.74
62402;BME280;48440;51.224;22.506;2023-04-08T09:32:50;99886.78;;;14.02;49.60
62402;BME280;48440;51.224;22.506;2023-04-08T09:35:17;99880.91;;;13.83;48.87
62402;BME280;48440;51.224;22.506;2023-04-08T09:37:43;99881.75;;;13.83;48.33
62402;BME280;48440;51.224;22.506;2023-04-08T09:40:09;99889.47;;;13.59;49.35
62402;BME280;48440;51.224;22.506;2023-04-08T09:42:40;99877.94;;;13.47;49.75
62402;BME280;48440;51.224;22.506;2023-04-08T09:45:06;99880.22;;;13.61;49.10
62402;BME280;48440;51.224;22.506;2023-04-08T09:47:41;99880.03;;;13.40;49.79
62402;BME280;48440;51.224;22.506;2023-04-08T09:50:08;99871.22;;;13.97;48.89
62402;BME280;48440;51.224;22.506;2023-04-08T09:52:44;99873.63;;;13.56;48.75
62402;BME280;48440;51.224;22.506;2023-04-08T09:55:12;99890.50;;;13.53;49.31
62402;BME280;48440;51.224;22.506;2023-04-08T10:00:15;99878.66;;;13.38;49.95
62402;BME280;48440;51.224;22.506;2023-04-08T10:05:26;99864.03;;;14.28;48.04
62402;BME280;48440;51.224;22.506;2023-04-08T10:07:52;99874.34;;;13.79;47.31
62402;BME280;48440;51.224;22.506;2023-04-08T10:10:20;99887.28;;;13.24;47.95
62402;BME280;48440;51.224;22.506;2023-04-08T10:12:46;99877.03;;;12.88;49.31
62402;BME280;48440;51.224;22.506;2023-04-08T10:15:27;99881.13;;;12.64;49.79
62402;BME280;48440;51.224;22.506;2023-04-08T10:18:28;99883.09;;;12.68;50.38
62402;BME280;48440;51.224;22.506;2023-04-08T10:20:46;99877.19;;;13.25;50.50
62402;BME280;48440;51.224;22.506;2023-04-08T10:23:14;99866.72;;;13.44;49.88
62402;BME280;48440;51.224;22.506;2023-04-08T10:30:44;99857.31;;;13.62;47.22
62402;BME280;48440;51.224;22.506;2023-04-08T10:33:14;99871.03;;;13.13;48.15
62402;BME280;48440;51.224;22.506;2023-04-08T10:35:46;99876.38;;;13.24;48.81
62402;BME280;48440;51.224;22.506;2023-04-08T10:38:13;99866.16;;;13.15;48.60
62402;BME280;48440;51.224;22.506;2023-04-08T10:40:39;99864.91;;;13.01;48.75
62402;BME280;48440;51.224;22.506;2023-04-08T10:43:10;99859.88;;;12.87;48.98
62402;BME280;48440;51.224;22.506;2023-04-08T10:45:36;99861.09;;;13.02;49.32
62402;BME280;48440;51.224;22.506;2023-04-08T10:48:19;99857.00;;;13.26;48.22
62402;BME280;48440;51.224;22.506;2023-04-08T10:50:57;99846.47;;;13.35;47.84
62402;BME280;48440;51.224;22.506;2023-04-08T10:53:41;99858.47;;;13.12;47.51
62402;BME280;48440;51.224;22.506;2023-04-08T10:56:11;99850.13;;;12.91;48.54
62402;BME280;48440;51.224;22.506;2023-04-08T10:58:53;99847.69;;;12.68;48.80
62402;BME280;48440;51.224;22.506;2023-04-08T11:01:20;99843.50;;;12.61;48.90
62402;BME280;48440;51.224;22.506;2023-04-08T11:03:46;99847.66;;;12.41;48.75
62402;BME280;48440;51.224;22.506;2023-04-08T11:06:11;99848.25;;;12.27;49.04
62402;BME280;48440;51.224;22.506;2023-04-08T11:08:37;99842.44;;;12.18;49.32
62402;BME280;48440;51.224;22.506;2023-04-08T11:11:04;99849.13;;;12.10;49.68
62402;BME280;48440;51.224;22.506;2023-04-08T11:13:38;99842.88;;;12.32;49.31
62402;BME280;48440;51.224;22.506;2023-04-08T11:16:05;99840.97;;;12.54;48.97
62402;BME280;48440;51.224;22.506;2023-04-08T11:18:33;99842.50;;;12.67;48.91
62402;BME280;48440;51.224;22.506;2023-04-08T11:20:59;99841.50;;;12.78;48.13
62402;BME280;48440;51.224;22.506;2023-04-08T11:23:26;99837.97;;;12.77;47.80
62402;BME280;48440;51.224;22.506;2023-04-08T11:25:51;99837.47;;;12.80;47.98
62402;BME280;48440;51.224;22.506;2023-04-08T11:28:17;99836.94;;;12.83;47.73
62402;BME280;48440;51.224;22.506;2023-04-08T11:30:43;99836.06;;;12.78;47.65
62402;BME280;48440;51.224;22.506;2023-04-08T11:33:09;99834.25;;;12.62;47.77
62402;BME280;48440;51.224;22.506;2023-04-08T11:35:39;99828.50;;;12.58;47.97
62402;BME280;48440;51.224;22.506;2023-04-08T11:38:06;99833.38;;;12.56;48.23
62402;BME280;48440;51.224;22.506;2023-04-08T11:40:32;99839.72;;;12.62;48.57
62402;BME280;48440;51.224;22.506;2023-04-08T11:42:57;99830.78;;;12.66;48.52
62402;BME280;48440;51.224;22.506;2023-04-08T11:45:23;99833.56;;;12.71;48.33
62402;BME280;48440;51.224;22.506;2023-04-08T11:47:48;99829.75;;;12.72;48.26
62402;BME280;48440;51.224;22.506;2023-04-08T11:50:24;99832.19;;;12.74;48.25
62402;BME280;48440;51.224;22.506;2023-04-08T11:52:51;99826.25;;;12.77;47.78
62402;BME280;48440;51.224;22.506;2023-04-08T11:55:26;99824.97;;;12.84;47.78
62402;BME280;48440;51.224;22.506;2023-04-08T11:57:53;99835.09;;;12.89;47.72
62402;BME280;48440;51.224;22.506;2023-04-08T12:00:20;99826.09;;;12.88;47.21
62402;BME280;48440;51.224;22.506;2023-04-08T12:02:46;99828.84;;;12.88;46.93
62402;BME280;48440;51.224;22.506;2023-04-08T12:05:15;99830.09;;;12.81;47.57
62402;BME280;48440;51.224;22.506;2023-04-08T12:07:41;99830.63;;;12.78;47.80
62402;BME280;48440;51.224;22.506;2023-04-08T12:10:08;99832.50;;;12.72;47.98
62402;BME280;48440;51.224;22.506;2023-04-08T12:12:34;99824.56;;;12.71;48.24
62402;BME280;48440;51.224;22.506;2023-04-08T12:14:59;99818.56;;;12.69;47.61
62402;BME280;48440;51.224;22.506;2023-04-08T12:17:25;99822.88;;;12.65;47.77
62402;BME280;48440;51.224;22.506;2023-04-08T12:19:50;99817.22;;;12.49;47.42
62402;BME280;48440;51.224;22.506;2023-04-08T12:22:16;99806.25;;;12.39;47.70
62402;BME280;48440;51.224;22.506;2023-04-08T12:24:41;99812.03;;;12.21;48.17
62402;BME280;48440;51.224;22.506;2023-04-08T12:27:07;99812.88;;;12.05;48.35
62402;BME280;48440;51.224;22.506;2023-04-08T12:29:32;99806.38;;;12.06;48.73
62402;BME280;48440;51.224;22.506;2023-04-08T12:31:58;99786.56;;;12.10;48.32
62402;BME280;48440;51.224;22.506;2023-04-08T12:34:24;99800.75;;;12.12;48.07
62402;BME280;48440;51.224;22.506;2023-04-08T12:36:49;99792.59;;;12.12;47.97
62402;BME280;48440;51.224;22.506;2023-04-08T12:39:15;99794.81;;;12.15;47.64
62402;BME280;48440;51.224;22.506;2023-04-08T12:41:41;99789.09;;;12.17;47.27
62402;BME280;48440;51.224;22.506;2023-04-08T12:44:06;99797.69;;;12.09;47.59
62402;BME280;48440;51.224;22.506;2023-04-08T12:46:32;99802.31;;;12.08;47.60
62402;BME280;48440;51.224;22.506;2023-04-08T12:48:57;99803.06;;;12.04;47.93
62402;BME280;48440;51.224;22.506;2023-04-08T12:51:22;99790.53;;;12.03;48.40
62402;BME280;48440;51.224;22.506;2023-04-08T12:53:50;99791.03;;;12.00;48.00
62402;BME280;48440;51.224;22.506;2023-04-08T12:56:15;99788.56;;;11.98;48.29
62402;BME280;48440;51.224;22.506;2023-04-08T12:58:41;99798.34;;;11.94;48.30
62402;BME280;48440;51.224;22.506;2023-04-08T13:01:06;99798.69;;;11.81;48.13
62402;BME280;48440;51.224;22.506;2023-04-08T13:03:31;99805.81;;;11.70;48.53
62402;BME280;48440;51.224;22.506;2023-04-08T13:05:59;99801.41;;;11.64;49.11
62402;BME280;48440;51.224;22.506;2023-04-08T13:08:25;99801.09;;;11.61;49.58